F/V Carmalia — FMFK — position and weather

sailwx.info

Track history (hours):
 
Tides and Currents Weather Stations Pressure Air Temp Water Temp Dewpoint Dewpoint Depression Visibility Wind Speed Wind Dir Waves Ship Positions

F/V Carmalia

Last reported at 2017-Apr-29 21:34 UTC. Time now 2017-Apr-30 11:11 UTC.
Position N 47°33' W 003°57'.

Length 17 m.

Type: Fishing. MMSI: 228222900.

Date/timePositionNaut miles runAvg speedWind from/ knotsBaromVisibWave heightAir tempDewpointWater temp
2017-Apr-29 21:34N 47°33' W 003°57'1 8.6
2017-Apr-29 21:27N 47°34' W 003°55'4 8.6
2017-Apr-29 21:00N 47°35' W 003°50'4 8.4
2017-Apr-29 20:30N 47°36' W 003°44'4 8.4
2017-Apr-29 20:00N 47°38' W 003°38'4 8.9
2017-Apr-29 19:30N 47°39' W 003°32'5 9.5
2017-Apr-29 19:00N 47°41' W 003°25'4 7.4
2017-Apr-29 18:30N 47°44' W 003°22'0 0.0
2017-Apr-29 18:00N 47°44' W 003°22'0 0.1
2017-Apr-29 17:30N 47°44' W 003°22'0 0.0
2017-Apr-29 17:00N 47°44' W 003°22'0 0.0
2017-Apr-29 16:30N 47°44' W 003°22'0 0.0
2017-Apr-29 16:00N 47°44' W 003°22'0 0.0
2017-Apr-29 15:30N 47°44' W 003°22'0 0.0
2017-Apr-29 15:00N 47°44' W 003°22'0 0.0
2017-Apr-29 14:30N 47°44' W 003°22'0 0.1
2017-Apr-29 13:30N 47°44' W 003°22'4 8.4
2017-Apr-29 13:00N 47°41' W 003°26'4 8.3
2017-Apr-29 12:30N 47°39' W 003°32'4 8.0
2017-Apr-29 12:00N 47°38' W 003°38'4 7.9
2017-Apr-29 11:30N 47°36' W 003°43'4 7.9
2017-Apr-29 11:00N 47°34' W 003°48'4 8.1
2017-Apr-29 10:29N 47°33' W 003°54'  
2017-Apr-26 13:27N 47°35' W 003°48'4 8.8
2017-Apr-26 12:59N 47°36' W 003°42'4 9.0
2017-Apr-26 12:30N 47°38' W 003°37'4 8.8
2017-Apr-26 12:00N 47°40' W 003°31'4 8.8
2017-Apr-26 11:30N 47°41' W 003°24'3 6.5
2017-Apr-26 11:00N 47°44' W 003°22'0 0.0
2017-Apr-26 10:30N 47°44' W 003°22'0 0.0
2017-Apr-26 10:00N 47°44' W 003°22'0 0.0
2017-Apr-26 09:30N 47°44' W 003°22'0 0.0
2017-Apr-26 09:00N 47°44' W 003°22'0 0.0
2017-Apr-26 08:30N 47°44' W 003°22'0 0.0
2017-Apr-26 08:00N 47°44' W 003°22'0 0.0
2017-Apr-26 07:30N 47°44' W 003°22'0 0.1
2017-Apr-26 07:00N 47°44' W 003°22'0 0.0
2017-Apr-26 06:30N 47°44' W 003°22'0 0.0
2017-Apr-25 14:00N 47°44' W 003°22'0 0.0
2017-Apr-24 09:43N 47°44' W 003°22'0 0.0
2017-Apr-24 09:31N 47°44' W 003°22'0 0.2
2017-Apr-24 09:01N 47°44' W 003°22'0 0.0
2017-Apr-24 08:31N 47°44' W 003°22'0 0.1
2017-Apr-24 08:01N 47°44' W 003°22'0 0.0
2017-Apr-24 07:31N 47°44' W 003°22'0 0.0
2017-Apr-24 07:01N 47°44' W 003°22'0 0.0
2017-Apr-24 06:30N 47°44' W 003°22'0 0.0
2017-Apr-24 06:01N 47°44' W 003°22'0 0.0
2017-Apr-24 05:31N 47°44' W 003°22'0 0.0
2017-Apr-24 05:01N 47°44' W 003°22'0 0.0
2017-Apr-24 04:30N 47°44' W 003°22'1 2.6
2017-Apr-24 04:00N 47°42' W 003°22'4 8.9
2017-Apr-24 03:31N 47°40' W 003°28'5 9.5
2017-Apr-24 03:01N 47°40' W 003°35'5 9.7
2017-Apr-24 02:31N 47°39' W 003°42'5 9.7
2017-Apr-24 02:00N 47°38' W 003°49'5 9.6
2017-Apr-24 01:27N 47°37' W 003°57'48 3.5
2017-Apr-23 11:43N 47°31' W 005°08'1 3.3
2017-Apr-23 11:29N 47°30' W 005°09'8 0.2
2017-Apr-22 02:46N 47°36' W 005°17'6 2.4
2017-Apr-22 00:12N 47°30' W 005°14'0 2.7
2017-Apr-22 00:01N 47°30' W 005°13'1 1.4
2017-Apr-21 23:30N 47°29' W 005°13'2 2.6
2017-Apr-21 22:56N 47°28' W 005°11'2 2.3
2017-Apr-21 22:02N 47°30' W 005°12'1 2.9
2017-Apr-21 21:33N 47°31' W 005°13'0 2.9
2017-Apr-21 21:30N 47°31' W 005°13'5 2.8
2017-Apr-21 19:53N 47°35' W 005°17'2 1.1
2017-Apr-21 17:58N 47°37' W 005°19'2 3.2
2017-Apr-21 17:23N 47°35' W 005°18'1 3.1
2017-Apr-21 17:00N 47°34' W 005°17'5 0.5
2017-Apr-21 07:46N 47°39' W 005°16'1 2.8
2017-Apr-21 07:25N 47°39' W 005°15'1 2.2
2017-Apr-21 06:56N 47°38' W 005°15'2 3.3
2017-Apr-21 06:23N 47°36' W 005°15'2 3.2
2017-Apr-21 05:49N 47°34' W 005°15'6 2.3
2017-Apr-21 03:08N 47°33' W 005°24'  
Track history (hours):
 
Tides and Currents Weather Stations Pressure Air Temp Water Temp Dewpoint Dewpoint Depression Visibility Wind Speed Wind Dir Waves Ship Positions

F/V Carmalia

Last reported at 2017-Apr-29 21:34 UTC. Time now 2017-Apr-30 11:11 UTC.
Position N 47°33' W 003°57'.

Length 17 m.

Type: Fishing. MMSI: 228222900.

Date/timePositionNaut miles runAvg speedWind from/ knotsBaromVisibWave heightAir tempDewpointWater temp
2017-Apr-29 21:34N 47°33' W 003°57'1 8.6
2017-Apr-29 21:27N 47°34' W 003°55'4 8.6
2017-Apr-29 21:00N 47°35' W 003°50'4 8.4
2017-Apr-29 20:30N 47°36' W 003°44'4 8.4
2017-Apr-29 20:00N 47°38' W 003°38'4 8.9
2017-Apr-29 19:30N 47°39' W 003°32'5 9.5
2017-Apr-29 19:00N 47°41' W 003°25'4 7.4
2017-Apr-29 18:30N 47°44' W 003°22'0 0.0
2017-Apr-29 18:00N 47°44' W 003°22'0 0.1
2017-Apr-29 17:30N 47°44' W 003°22'0 0.0
2017-Apr-29 17:00N 47°44' W 003°22'0 0.0
2017-Apr-29 16:30N 47°44' W 003°22'0 0.0
2017-Apr-29 16:00N 47°44' W 003°22'0 0.0
2017-Apr-29 15:30N 47°44' W 003°22'0 0.0
2017-Apr-29 15:00N 47°44' W 003°22'0 0.0
2017-Apr-29 14:30N 47°44' W 003°22'0 0.1
2017-Apr-29 13:30N 47°44' W 003°22'4 8.4
2017-Apr-29 13:00N 47°41' W 003°26'4 8.3
2017-Apr-29 12:30N 47°39' W 003°32'4 8.0
2017-Apr-29 12:00N 47°38' W 003°38'4 7.9
2017-Apr-29 11:30N 47°36' W 003°43'4 7.9
2017-Apr-29 11:00N 47°34' W 003°48'4 8.1
2017-Apr-29 10:29N 47°33' W 003°54'  
2017-Apr-26 13:27N 47°35' W 003°48'4 8.8
2017-Apr-26 12:59N 47°36' W 003°42'4 9.0
2017-Apr-26 12:30N 47°38' W 003°37'4 8.8
2017-Apr-26 12:00N 47°40' W 003°31'4 8.8
2017-Apr-26 11:30N 47°41' W 003°24'3 6.5
2017-Apr-26 11:00N 47°44' W 003°22'0 0.0
2017-Apr-26 10:30N 47°44' W 003°22'0 0.0
2017-Apr-26 10:00N 47°44' W 003°22'0 0.0
2017-Apr-26 09:30N 47°44' W 003°22'0 0.0
2017-Apr-26 09:00N 47°44' W 003°22'0 0.0
2017-Apr-26 08:30N 47°44' W 003°22'0 0.0
2017-Apr-26 08:00N 47°44' W 003°22'0 0.0
2017-Apr-26 07:30N 47°44' W 003°22'0 0.1
2017-Apr-26 07:00N 47°44' W 003°22'0 0.0
2017-Apr-26 06:30N 47°44' W 003°22'0 0.0
2017-Apr-25 14:00N 47°44' W 003°22'0 0.0
2017-Apr-24 09:43N 47°44' W 003°22'0 0.0
2017-Apr-24 09:31N 47°44' W 003°22'0 0.2
2017-Apr-24 09:01N 47°44' W 003°22'0 0.0
2017-Apr-24 08:31N 47°44' W 003°22'0 0.1
2017-Apr-24 08:01N 47°44' W 003°22'0 0.0
2017-Apr-24 07:31N 47°44' W 003°22'0 0.0
2017-Apr-24 07:01N 47°44' W 003°22'0 0.0
2017-Apr-24 06:30N 47°44' W 003°22'0 0.0
2017-Apr-24 06:01N 47°44' W 003°22'0 0.0
2017-Apr-24 05:31N 47°44' W 003°22'0 0.0
2017-Apr-24 05:01N 47°44' W 003°22'0 0.0
2017-Apr-24 04:30N 47°44' W 003°22'1 2.6
2017-Apr-24 04:00N 47°42' W 003°22'4 8.9
2017-Apr-24 03:31N 47°40' W 003°28'5 9.5
2017-Apr-24 03:01N 47°40' W 003°35'5 9.7
2017-Apr-24 02:31N 47°39' W 003°42'5 9.7
2017-Apr-24 02:00N 47°38' W 003°49'5 9.6
2017-Apr-24 01:27N 47°37' W 003°57'48 3.5
2017-Apr-23 11:43N 47°31' W 005°08'1 3.3
2017-Apr-23 11:29N 47°30' W 005°09'8 0.2
2017-Apr-22 02:46N 47°36' W 005°17'6 2.4
2017-Apr-22 00:12N 47°30' W 005°14'0 2.7
2017-Apr-22 00:01N 47°30' W 005°13'1 1.4
2017-Apr-21 23:30N 47°29' W 005°13'2 2.6
2017-Apr-21 22:56N 47°28' W 005°11'2 2.3
2017-Apr-21 22:02N 47°30' W 005°12'1 2.9
2017-Apr-21 21:33N 47°31' W 005°13'0 2.9
2017-Apr-21 21:30N 47°31' W 005°13'5 2.8
2017-Apr-21 19:53N 47°35' W 005°17'2 1.1
2017-Apr-21 17:58N 47°37' W 005°19'2 3.2
2017-Apr-21 17:23N 47°35' W 005°18'1 3.1
2017-Apr-21 17:00N 47°34' W 005°17'5 0.5
2017-Apr-21 07:46N 47°39' W 005°16'1 2.8
2017-Apr-21 07:25N 47°39' W 005°15'1 2.2
2017-Apr-21 06:56N 47°38' W 005°15'2 3.3
2017-Apr-21 06:23N 47°36' W 005°15'2 3.2
2017-Apr-21 05:49N 47°34' W 005°15'6 2.3
2017-Apr-21 03:08N 47°33' W 005°24'  

Dump ship's entire track history